Time;durP1;ratioP1;P1;durP2;ratioP2;P2;SDS_P1;SDS_P2;PMS_P1;PMS_P2;Temp;Humidity;BMP_temperature;BMP_pressure;BME280_temperature;BME280_humidity;BME280_pressure;Samples;Min_cycle;Max_cycle;Signal;HPM_P1;HPM_P2
2021/07/23 00:01:10;;;;;;;9.65;5.65;;;;;;;;;;5114163;28;20048;-63
2021/07/23 00:03:36;;;;;;;9.23;5.43;;;;;;;;;;5114301;28;20525;-63
2021/07/23 00:06:03;;;;;;;10.27;5.88;;;;;;;;;;5115656;28;20047;-63
2021/07/23 00:08:29;;;;;;;12.63;5.72;;;;;;;;;;5113128;28;20044;-63
2021/07/23 00:10:55;;;;;;;9.77;5.65;;;;;;;;;;5112666;28;20070;-63
2021/07/23 00:13:21;;;;;;;7.50;4.95;;;;;;;;;;5112351;28;20483;-63
2021/07/23 00:15:48;;;;;;;12.25;5.90;;;;;;;;;;5114014;28;20119;-63
2021/07/23 00:18:16;;;;;;;12.48;5.47;;;;;;;;;;5114311;28;20479;-63
2021/07/23 00:20:42;;;;;;;11.27;5.97;;;;;;;;;;5113762;28;20047;-63
2021/07/23 00:23:09;;;;;;;12.60;5.75;;;;;;;;;;5113939;28;20051;-63
2021/07/23 00:25:36;;;;;;;8.88;5.75;;;;;;;;;;5113701;28;20085;-63
2021/07/23 00:28:02;;;;;;;12.40;6.22;;;;;;;;;;5113535;28;20050;-63
2021/07/23 00:30:28;;;;;;;11.70;5.28;;;;;;;;;;5113707;28;20079;-63
2021/07/23 00:32:55;;;;;;;11.32;5.50;;;;;;;;;;5115425;28;20075;-63
2021/07/23 00:35:21;;;;;;;8.73;5.25;;;;;;;;;;5113565;28;20059;-63
2021/07/23 00:37:47;;;;;;;11.02;6.07;;;;;;;;;;5113386;28;20455;-63
2021/07/23 00:40:14;;;;;;;11.80;5.80;;;;;;;;;;5095342;28;20071;-63
2021/07/23 00:42:41;;;;;;;10.63;6.30;;;;;;;;;;5113372;28;20059;-63
2021/07/23 00:45:08;;;;;;;11.77;5.95;;;;;;;;;;5114404;28;20070;-63
2021/07/23 00:47:36;;;;;;;13.65;6.30;;;;;;;;;;5114586;28;20052;-63
2021/07/23 00:50:03;;;;;;;9.60;5.75;;;;;;;;;;5111905;28;20042;-63
2021/07/23 00:52:29;;;;;;;10.80;5.68;;;;;;;;;;5093748;28;20046;-63
2021/07/23 00:54:57;;;;;;;13.35;6.40;;;;;;;;;;5095049;28;20075;-63
2021/07/23 00:57:24;;;;;;;8.82;5.65;;;;;;;;;;5094914;28;20036;-63
2021/07/23 00:59:51;;;;;;;13.63;5.75;;;;;;;;;;5097161;28;20089;-63
2021/07/23 01:02:17;;;;;;;10.88;5.57;;;;;;;;;;5094898;28;20078;-63
2021/07/23 01:04:45;;;;;;;9.95;5.88;;;;;;;;;;5092695;28;20044;-63
2021/07/23 01:07:13;;;;;;;11.70;6.20;;;;;;;;;;5094822;28;20079;-63
2021/07/23 01:09:40;;;;;;;7.53;5.00;;;;;;;;;;5094752;28;20047;-63
2021/07/23 01:12:14;;;;;;;13.48;5.70;;;;;;;;;;5094841;28;20051;-63
2021/07/23 01:14:42;;;;;;;12.02;5.75;;;;;;;;;;5094738;28;20081;-63
2021/07/23 01:17:09;;;;;;;8.70;5.55;;;;;;;;;;5112685;28;20039;-63
2021/07/23 01:19:52;;;;;;;10.98;6.38;;;;;;;;;;5094555;28;20491;-63
2021/07/23 01:22:21;;;;;;;13.45;6.40;;;;;;;;;;5112494;28;20530;-63
2021/07/23 01:24:48;;;;;;;9.45;5.65;;;;;;;;;;5094306;28;20118;-63
2021/07/23 01:27:15;;;;;;;12.90;6.30;;;;;;;;;;5113748;28;20395;-63
2021/07/23 01:30:01;;;;;;;14.20;6.65;;;;;;;;;;5096480;28;20071;-63
2021/07/23 01:32:27;;;;;;;14.05;6.53;;;;;;;;;;5093486;28;20047;-63
2021/07/23 01:34:54;;;;;;;18.05;6.40;;;;;;;;;;5094352;28;20048;-63
2021/07/23 01:37:21;;;;;;;11.40;5.80;;;;;;;;;;5112279;28;20067;-63
2021/07/23 01:39:48;;;;;;;10.75;6.63;;;;;;;;;;5112186;28;20495;-63
2021/07/23 01:42:14;;;;;;;13.40;6.10;;;;;;;;;;5094621;28;20078;-63
2021/07/23 01:44:43;;;;;;;12.57;6.15;;;;;;;;;;5096165;28;20047;-63
2021/07/23 01:47:10;;;;;;;8.88;5.88;;;;;;;;;;5112116;28;20043;-63
2021/07/23 01:49:37;;;;;;;11.35;5.90;;;;;;;;;;5092230;28;20062;-63
2021/07/23 01:52:04;;;;;;;11.73;6.30;;;;;;;;;;5112382;28;20085;-63
2021/07/23 01:54:44;;;;;;;11.55;6.43;;;;;;;;;;5097761;28;20380;-63
2021/07/23 01:57:14;;;;;;;11.93;5.95;;;;;;;;;;5094290;28;20079;-63
2021/07/23 01:59:41;;;;;;;12.90;6.25;;;;;;;;;;5095875;28;20047;-63
2021/07/23 02:02:08;;;;;;;10.48;5.97;;;;;;;;;;5111940;28;20044;-63
2021/07/23 02:04:40;;;;;;;10.82;6.15;;;;;;;;;;5112022;28;20035;-63
2021/07/23 02:07:06;;;;;;;13.93;5.97;;;;;;;;;;5110313;28;20067;-63
2021/07/23 02:09:33;;;;;;;9.95;6.22;;;;;;;;;;5111549;28;20054;-63
2021/07/23 02:12:00;;;;;;;10.75;5.90;;;;;;;;;;5113934;28;20085;-63
2021/07/23 02:14:45;;;;;;;;;;;;;;;;;;5112610;28;20048;-63
2021/07/23 02:17:15;;;;;;;11.02;5.80;;;;;;;;;;5092649;28;19947;-63
2021/07/23 02:19:42;;;;;;;15.10;6.55;;;;;;;;;;5091820;28;20066;-63
2021/07/23 02:22:16;;;;;;;11.25;6.28;;;;;;;;;;5091732;28;20063;-63
2021/07/23 02:24:43;;;;;;;14.38;7.53;;;;;;;;;;5111396;28;20130;-63
2021/07/23 02:27:13;;;;;;;14.10;6.35;;;;;;;;;;5112045;28;20067;-63
2021/07/23 02:29:45;;;;;;;10.85;6.57;;;;;;;;;;5081920;28;20056;-63
2021/07/23 02:32:11;;;;;;;10.98;6.05;;;;;;;;;;5069578;28;20041;-63
2021/07/23 02:34:38;;;;;;;20.10;6.65;;;;;;;;;;5069658;28;20070;-63
2021/07/23 02:37:04;;;;;;;11.85;6.38;;;;;;;;;;5070692;28;20080;-63
2021/07/23 02:39:32;;;;;;;11.40;6.32;;;;;;;;;;5069880;28;20041;-63
2021/07/23 02:42:01;;;;;;;10.90;6.18;;;;;;;;;;5051382;28;20076;-63
2021/07/23 02:44:34;;;;;;;10.95;6.47;;;;;;;;;;5051510;28;20151;-63
2021/07/23 02:47:00;;;;;;;11.43;6.07;;;;;;;;;;5066026;28;20079;-63
2021/07/23 02:49:29;;;;;;;13.95;6.78;;;;;;;;;;5068389;28;20040;-63
2021/07/23 02:51:56;;;;;;;11.00;6.07;;;;;;;;;;5069473;28;20084;-63
2021/07/23 02:54:23;;;;;;;12.90;6.63;;;;;;;;;;5069440;28;20057;-63
2021/07/23 02:56:49;;;;;;;13.98;6.13;;;;;;;;;;5054954;28;20084;-63
2021/07/23 02:59:17;;;;;;;9.80;6.13;;;;;;;;;;5069595;28;20063;-63
2021/07/23 03:01:49;;;;;;;10.57;6.40;;;;;;;;;;5069302;28;20051;-63
2021/07/23 03:04:24;;;;;;;12.52;6.32;;;;;;;;;;5069508;28;20041;-63
2021/07/23 03:06:52;;;;;;;12.10;5.93;;;;;;;;;;5069341;28;20075;-63
2021/07/23 03:09:19;;;;;;;12.27;6.65;;;;;;;;;;5069594;28;20120;-63
2021/07/23 03:11:45;;;;;;;9.00;5.85;;;;;;;;;;5072592;28;20090;-63
2021/07/23 03:14:12;;;;;;;10.38;6.18;;;;;;;;;;5070310;28;20044;-63
2021/07/23 03:17:02;;;;;;;13.38;7.22;;;;;;;;;;5069520;28;20087;-63
2021/07/23 03:19:28;;;;;;;10.90;6.65;;;;;;;;;;5069887;28;20483;-63
2021/07/23 03:21:55;;;;;;;12.30;6.60;;;;;;;;;;5068394;28;20519;-63
2021/07/23 03:24:22;;;;;;;10.98;6.30;;;;;;;;;;5069127;28;20187;-63
2021/07/23 03:26:49;;;;;;;10.60;7.00;;;;;;;;;;5069694;28;20040;-63
2021/07/23 03:29:17;;;;;;;11.82;7.05;;;;;;;;;;5078595;28;20525;-63
2021/07/23 03:31:44;;;;;;;10.65;6.78;;;;;;;;;;5096080;28;20530;-63
2021/07/23 03:34:17;;;;;;;20.08;6.97;;;;;;;;;;5096025;28;20413;-63
2021/07/23 03:36:54;;;;;;;12.63;7.00;;;;;;;;;;5096232;28;20079;-63
2021/07/23 03:39:28;;;;;;;14.00;7.47;;;;;;;;;;5096603;28;20039;-63
2021/07/23 03:41:56;;;;;;;11.88;6.90;;;;;;;;;;5098705;28;20067;-63
2021/07/23 03:44:22;;;;;;;14.60;7.43;;;;;;;;;;5094837;28;20138;-63
2021/07/23 03:46:50;;;;;;;15.25;6.65;;;;;;;;;;5094623;28;20062;-63
2021/07/23 03:49:18;;;;;;;13.65;7.88;;;;;;;;;;5096311;28;20077;-63
2021/07/23 03:51:45;;;;;;;10.82;6.93;;;;;;;;;;5114453;28;20388;-63
2021/07/23 03:54:13;;;;;;;13.15;6.70;;;;;;;;;;5078137;28;20048;-63
2021/07/23 03:56:40;;;;;;;10.43;6.22;;;;;;;;;;5097986;28;20105;-63
2021/07/23 03:59:09;;;;;;;10.82;6.75;;;;;;;;;;5094404;28;20134;-63
2021/07/23 04:01:45;;;;;;;14.45;7.00;;;;;;;;;;5096122;28;20576;-63
2021/07/23 04:04:13;;;;;;;11.95;7.40;;;;;;;;;;5094216;28;20051;-63
2021/07/23 04:06:39;;;;;;;11.27;7.47;;;;;;;;;;5113008;28;20044;-63
2021/07/23 04:09:08;;;;;;;18.88;7.90;;;;;;;;;;5097234;28;20040;-63
2021/07/23 04:11:48;;;;;;;13.25;7.68;;;;;;;;;;5076843;28;20127;-63
2021/07/23 04:14:15;;;;;;;12.93;8.10;;;;;;;;;;5092792;28;20082;-63
2021/07/23 04:16:43;;;;;;;11.13;6.93;;;;;;;;;;5095872;28;20040;-63
2021/07/23 04:19:09;;;;;;;11.32;7.63;;;;;;;;;;5095547;28;20036;-63
2021/07/23 04:21:43;;;;;;;19.90;7.55;;;;;;;;;;5094390;28;20106;-63
2021/07/23 04:24:20;;;;;;;13.50;7.30;;;;;;;;;;5095927;28;20047;-63
2021/07/23 04:26:48;;;;;;;15.70;7.15;;;;;;;;;;5097891;28;20079;-63
2021/07/23 04:29:14;;;;;;;12.30;7.28;;;;;;;;;;5093888;28;20497;-63
2021/07/23 04:31:40;;;;;;;14.80;7.80;;;;;;;;;;5095544;28;20062;-63
2021/07/23 04:34:07;;;;;;;13.07;7.90;;;;;;;;;;5113323;28;20418;-63
2021/07/23 04:36:36;;;;;;;16.38;8.85;;;;;;;;;;5114026;28;20094;-63
2021/07/23 04:39:22;;;;;;;19.48;8.30;;;;;;;;;;5080990;28;20474;-63
2021/07/23 04:41:50;;;;;;;15.45;9.55;;;;;;;;;;5115497;28;20058;-63
2021/07/23 04:44:17;;;;;;;18.27;9.98;;;;;;;;;;5093982;28;20081;-63
2021/07/23 04:46:47;;;;;;;24.10;10.55;;;;;;;;;;5094213;28;20040;-63
2021/07/23 04:49:14;;;;;;;21.83;9.63;;;;;;;;;;5095109;28;20048;-63
2021/07/23 04:51:41;;;;;;;18.48;8.77;;;;;;;;;;5095394;28;20383;-63
2021/07/23 04:54:26;;;;;;;;;;;;;;;;;;5113616;28;20537;-63
2021/07/23 04:57:15;;;;;;;16.42;8.27;;;;;;;;;;5111824;28;20268;-63
2021/07/23 04:59:44;;;;;;;15.60;8.80;;;;;;;;;;5097327;28;20504;-63
2021/07/23 05:02:10;;;;;;;13.20;8.43;;;;;;;;;;5113000;28;20036;-63
2021/07/23 05:04:36;;;;;;;23.27;9.20;;;;;;;;;;5112999;28;20062;-63
2021/07/23 05:07:03;;;;;;;16.90;8.05;;;;;;;;;;5093277;28;20492;-63
2021/07/23 05:09:30;;;;;;;17.15;8.27;;;;;;;;;;5077696;28;20407;-63
2021/07/23 05:11:56;;;;;;;14.77;8.82;;;;;;;;;;5080064;28;20051;-63
2021/07/23 05:14:23;;;;;;;16.40;8.43;;;;;;;;;;5112623;28;20074;-63
2021/07/23 05:16:50;;;;;;;14.23;7.40;;;;;;;;;;5094511;28;20046;-63
2021/07/23 05:19:16;;;;;;;17.70;9.05;;;;;;;;;;5112800;28;20039;-63
2021/07/23 05:21:45;;;;;;;16.13;7.38;;;;;;;;;;5111266;28;20090;-63
2021/07/23 05:24:11;;;;;;;16.75;8.20;;;;;;;;;;5113891;28;20051;-63
2021/07/23 05:26:38;;;;;;;12.88;7.85;;;;;;;;;;5112464;28;20043;-63
2021/07/23 05:29:05;;;;;;;16.75;7.85;;;;;;;;;;5112303;28;20082;-63
2021/07/23 05:31:31;;;;;;;18.60;7.68;;;;;;;;;;5112487;28;20036;-63
2021/07/23 05:33:58;;;;;;;14.73;7.65;;;;;;;;;;5112458;28;20518;-63
2021/07/23 05:36:25;;;;;;;12.70;7.78;;;;;;;;;;5094435;28;20075;-63
2021/07/23 05:38:52;;;;;;;15.70;7.82;;;;;;;;;;5114505;28;20040;-63
2021/07/23 05:41:18;;;;;;;12.73;7.88;;;;;;;;;;5112443;28;20042;-63
2021/07/23 05:43:44;;;;;;;12.55;7.53;;;;;;;;;;5112121;28;20077;-64
2021/07/23 05:46:10;;;;;;;15.27;7.85;;;;;;;;;;5111926;28;20093;-63
2021/07/23 05:48:38;;;;;;;17.02;7.13;;;;;;;;;;5112255;28;20566;-63
2021/07/23 05:51:05;;;;;;;14.73;7.45;;;;;;;;;;5113427;28;20047;-63
2021/07/23 05:53:31;;;;;;;19.88;7.53;;;;;;;;;;5093137;28;20048;-63
2021/07/23 05:55:58;;;;;;;22.00;7.72;;;;;;;;;;5112067;28;20489;-63
2021/07/23 05:58:27;;;;;;;14.52;7.28;;;;;;;;;;5111856;28;20071;-63
2021/07/23 06:00:54;;;;;;;15.23;7.45;;;;;;;;;;5110405;28;20096;-63
2021/07/23 06:03:20;;;;;;;17.45;7.80;;;;;;;;;;5111880;28;20051;-64
2021/07/23 06:05:47;;;;;;;17.77;7.85;;;;;;;;;;5114027;28;20047;-64
2021/07/23 06:08:13;;;;;;;16.25;7.75;;;;;;;;;;5111765;28;20043;-64
2021/07/23 06:10:40;;;;;;;15.68;7.75;;;;;;;;;;5111729;28;20039;-63
2021/07/23 06:13:06;;;;;;;16.35;7.32;;;;;;;;;;5111602;28;20087;-64
2021/07/23 06:15:32;;;;;;;10.88;6.95;;;;;;;;;;5111613;28;20066;-63
2021/07/23 06:17:59;;;;;;;13.23;6.97;;;;;;;;;;5113874;28;20116;-63
2021/07/23 06:20:25;;;;;;;17.42;7.57;;;;;;;;;;5111540;28;20043;-63
2021/07/23 06:22:55;;;;;;;11.00;6.90;;;;;;;;;;5111517;28;20044;-63
2021/07/23 06:25:22;;;;;;;13.93;7.80;;;;;;;;;;5111712;28;20526;-63
2021/07/23 06:27:48;;;;;;;13.75;6.93;;;;;;;;;;5111469;28;20502;-63
2021/07/23 06:30:15;;;;;;;11.38;6.70;;;;;;;;;;5107586;28;20148;-62
2021/07/23 06:32:41;;;;;;;15.07;6.68;;;;;;;;;;5112641;28;20043;-62
2021/07/23 06:35:08;;;;;;;13.25;7.38;;;;;;;;;;5110946;28;20499;-62
2021/07/23 06:37:35;;;;;;;10.38;6.68;;;;;;;;;;5111022;28;20044;-62
2021/07/23 06:40:01;;;;;;;12.57;6.53;;;;;;;;;;5109570;28;20039;-62
2021/07/23 06:42:27;;;;;;;18.60;7.53;;;;;;;;;;5110365;28;20040;-63
2021/07/23 06:44:54;;;;;;;12.60;7.43;;;;;;;;;;5112200;28;20066;-62
2021/07/23 06:47:20;;;;;;;13.13;6.65;;;;;;;;;;5111031;28;20184;-62
2021/07/23 06:49:53;;;;;;;15.55;7.32;;;;;;;;;;5110757;28;20066;-63
2021/07/23 06:52:20;;;;;;;12.45;6.45;;;;;;;;;;5110758;28;20070;-62
2021/07/23 06:54:48;;;;;;;15.63;6.18;;;;;;;;;;5111018;28;20043;-62
2021/07/23 06:57:15;;;;;;;16.67;7.07;;;;;;;;;;5111125;28;20059;-63
2021/07/23 06:59:41;;;;;;;13.50;8.13;;;;;;;;;;5111922;28;20046;-61
2021/07/23 07:02:07;;;;;;;14.70;7.35;;;;;;;;;;5110658;28;20040;-61
2021/07/23 07:04:34;;;;;;;11.40;7.50;;;;;;;;;;5114895;28;20078;-61
2021/07/23 07:07:01;;;;;;;15.10;7.38;;;;;;;;;;5114626;28;20388;-62
2021/07/23 07:09:28;;;;;;;13.55;7.38;;;;;;;;;;5115125;28;20044;-62
2021/07/23 07:11:58;;;;;;;10.65;6.30;;;;;;;;;;5116833;28;20476;-62
2021/07/23 07:14:25;;;;;;;10.00;6.20;;;;;;;;;;5114399;28;20044;-63
2021/07/23 07:16:53;;;;;;;14.55;6.60;;;;;;;;;;5114918;28;20039;-62
2021/07/23 07:19:20;;;;;;;9.80;6.55;;;;;;;;;;5113197;28;20078;-61
2021/07/23 07:21:49;;;;;;;15.15;6.63;;;;;;;;;;5113307;28;20035;-62
2021/07/23 07:24:19;;;;;;;19.05;7.05;;;;;;;;;;5114983;28;20047;-62
2021/07/23 07:26:47;;;;;;;13.30;6.07;;;;;;;;;;5115254;28;20047;-62
2021/07/23 07:29:14;;;;;;;11.23;6.00;;;;;;;;;;5095936;28;20047;-62
2021/07/23 07:31:41;;;;;;;9.93;5.03;;;;;;;;;;5114513;28;20119;-62
2021/07/23 07:34:08;;;;;;;13.00;6.10;;;;;;;;;;5114523;28;20082;-63
2021/07/23 07:36:35;;;;;;;9.75;5.60;;;;;;;;;;5114433;28;20047;-63
2021/07/23 07:39:02;;;;;;;12.88;5.53;;;;;;;;;;5116609;28;20066;-64
2021/07/23 07:41:28;;;;;;;8.38;5.32;;;;;;;;;;5111743;28;20086;-63
2021/07/23 07:43:55;;;;;;;19.55;6.75;;;;;;;;;;5114040;28;20452;-63
2021/07/23 07:46:22;;;;;;;9.32;4.68;;;;;;;;;;5114418;28;20138;-63
2021/07/23 07:48:48;;;;;;;15.75;5.30;;;;;;;;;;5114129;28;20063;-63
2021/07/23 07:51:14;;;;;;;10.93;5.65;;;;;;;;;;5114620;28;20448;-63
2021/07/23 07:53:41;;;;;;;12.25;4.75;;;;;;;;;;5115804;28;20487;-63
2021/07/23 07:56:08;;;;;;;10.25;5.75;;;;;;;;;;5095720;28;20071;-63
2021/07/23 07:58:34;;;;;;;8.93;5.45;;;;;;;;;;5112711;28;20036;-64
2021/07/23 08:01:00;;;;;;;12.02;5.90;;;;;;;;;;5112788;28;20495;-62
2021/07/23 08:03:27;;;;;;;9.75;5.57;;;;;;;;;;5113952;28;20132;-62
2021/07/23 08:05:58;;;;;;;13.15;4.90;;;;;;;;;;5112009;28;20044;-63
2021/07/23 08:08:25;;;;;;;12.00;5.72;;;;;;;;;;5111593;28;20124;-63
2021/07/23 08:10:51;;;;;;;10.68;4.53;;;;;;;;;;5113465;28;20503;-62
2021/07/23 08:13:17;;;;;;;12.20;5.15;;;;;;;;;;5095308;28;20044;-62
2021/07/23 08:15:44;;;;;;;8.40;4.90;;;;;;;;;;5113707;28;20088;-62
2021/07/23 08:18:10;;;;;;;13.93;6.03;;;;;;;;;;5114681;28;20052;-62
2021/07/23 08:20:37;;;;;;;8.48;5.22;;;;;;;;;;5114759;28;20069;-63
2021/07/23 08:23:06;;;;;;;10.32;5.57;;;;;;;;;;5113495;28;20059;-63
2021/07/23 08:25:32;;;;;;;10.00;5.60;;;;;;;;;;5113212;28;20096;-64
2021/07/23 08:27:59;;;;;;;13.60;6.25;;;;;;;;;;5113469;28;20529;-63
2021/07/23 08:30:25;;;;;;;11.52;6.95;;;;;;;;;;5113171;28;20176;-63
2021/07/23 08:32:53;;;;;;;9.10;5.85;;;;;;;;;;5115387;28;20067;-63
2021/07/23 08:35:20;;;;;;;11.02;5.63;;;;;;;;;;5113229;28;20075;-63
2021/07/23 08:37:47;;;;;;;10.43;5.43;;;;;;;;;;5111591;28;20465;-62
2021/07/23 08:40:13;;;;;;;13.55;6.68;;;;;;;;;;5111610;28;20074;-63
2021/07/23 08:42:40;;;;;;;10.63;5.88;;;;;;;;;;5113187;28;20040;-63
2021/07/23 08:45:07;;;;;;;15.50;6.00;;;;;;;;;;5114054;28;21025;-63
2021/07/23 08:47:36;;;;;;;11.48;6.18;;;;;;;;;;5113716;28;20101;-63
2021/07/23 08:50:04;;;;;;;9.88;6.70;;;;;;;;;;5112788;28;20051;-63
2021/07/23 08:52:46;;;;;;;10.82;6.10;;;;;;;;;;5112909;28;20051;-64
2021/07/23 08:55:14;;;;;;;12.20;5.80;;;;;;;;;;5112780;28;20105;-64
2021/07/23 08:57:41;;;;;;;15.13;7.00;;;;;;;;;;5112861;28;20039;-63
2021/07/23 09:00:08;;;;;;;12.63;5.72;;;;;;;;;;5113900;28;20043;-63
2021/07/23 09:02:51;;;;;;;13.65;6.20;;;;;;;;;;5113681;28;20126;-64
2021/07/23 09:05:17;;;;;;;10.88;6.05;;;;;;;;;;5112715;28;20048;-63
2021/07/23 09:07:44;;;;;;;12.18;6.57;;;;;;;;;;5112339;28;20560;-62
2021/07/23 09:10:12;;;;;;;11.23;6.97;;;;;;;;;;5112438;28;20643;-64
2021/07/23 09:12:42;;;;;;;22.67;7.95;;;;;;;;;;5112647;28;20135;-63
2021/07/23 09:15:21;;;;;;;12.52;6.25;;;;;;;;;;5113872;28;20047;-62
2021/07/23 09:17:48;;;;;;;9.35;6.13;;;;;;;;;;5113144;28;20088;-63
2021/07/23 09:20:15;;;;;;;10.07;6.40;;;;;;;;;;5110983;28;20043;-63
2021/07/23 09:22:44;;;;;;;11.75;6.57;;;;;;;;;;5112253;28;20043;-63
2021/07/23 09:25:11;;;;;;;11.85;6.10;;;;;;;;;;5111849;28;20055;-62
2021/07/23 09:27:38;;;;;;;11.30;6.05;;;;;;;;;;5112371;28;20529;-63
2021/07/23 09:30:09;;;;;;;14.32;6.53;;;;;;;;;;5113578;28;20499;-62
2021/07/23 09:32:35;;;;;;;10.15;5.65;;;;;;;;;;5113079;28;20043;-63
2021/07/23 09:35:12;;;;;;;12.80;6.97;;;;;;;;;;5111974;28;20056;-63
2021/07/23 09:37:54;;;;;;;9.90;6.15;;;;;;;;;;5111845;28;20502;-63
2021/07/23 09:40:21;;;;;;;8.80;5.88;;;;;;;;;;5112005;28;20569;-63
2021/07/23 09:42:55;;;;;;;10.13;6.28;;;;;;;;;;5111957;28;20039;-64
2021/07/23 09:45:22;;;;;;;;;;;;;;;;;;5112686;28;20429;-63
2021/07/23 09:47:48;;;;;;;9.20;5.80;;;;;;;;;;5114025;28;19962;-63
2021/07/23 09:50:15;;;;;;;9.65;5.75;;;;;;;;;;5111542;28;20059;-64
2021/07/23 09:52:42;;;;;;;12.23;6.18;;;;;;;;;;5111547;28;20071;-64
2021/07/23 09:55:08;;;;;;;10.32;6.18;;;;;;;;;;5110224;28;20124;-64
2021/07/23 09:57:35;;;;;;;14.10;5.80;;;;;;;;;;5111653;28;20044;-63
2021/07/23 10:00:05;;;;;;;11.13;6.63;;;;;;;;;;5113575;28;20644;-62
2021/07/23 10:02:32;;;;;;;7.88;5.55;;;;;;;;;;5110654;28;20067;-64
2021/07/23 10:05:09;;;;;;;9.82;6.00;;;;;;;;;;5093513;28;20059;-62
2021/07/23 10:07:40;;;;;;;10.65;6.00;;;;;;;;;;5112280;28;20040;-63
2021/07/23 10:10:10;;;;;;;10.18;6.00;;;;;;;;;;5111528;28;20085;-62
2021/07/23 10:12:36;;;;;;;9.77;6.20;;;;;;;;;;5111491;28;20080;-62
2021/07/23 10:15:03;;;;;;;9.95;5.95;;;;;;;;;;5113595;28;20055;-62
2021/07/23 10:17:29;;;;;;;11.35;5.53;;;;;;;;;;5112024;28;20475;-63
2021/07/23 10:19:57;;;;;;;9.90;5.88;;;;;;;;;;5111106;28;20067;-63
2021/07/23 10:22:25;;;;;;;10.55;5.60;;;;;;;;;;5111107;28;20092;-63
2021/07/23 10:24:51;;;;;;;10.65;5.53;;;;;;;;;;5111263;28;20076;-63
2021/07/23 10:27:18;;;;;;;15.88;5.55;;;;;;;;;;5111301;28;20094;-64
2021/07/23 10:29:48;;;;;;;9.77;5.68;;;;;;;;;;5113035;28;20060;-63
2021/07/23 10:32:24;;;;;;;11.13;5.95;;;;;;;;;;5110943;28;20048;-63
2021/07/23 10:35:00;;;;;;;10.82;5.38;;;;;;;;;;5109847;28;20063;-63
2021/07/23 10:37:30;;;;;;;13.80;6.10;;;;;;;;;;5108866;28;20452;-63
2021/07/23 10:40:08;;;;;;;10.30;5.82;;;;;;;;;;5110894;28;20490;-63
2021/07/23 10:42:35;;;;;;;9.10;5.53;;;;;;;;;;5095337;28;20048;-64
2021/07/23 10:45:03;;;;;;;8.35;5.65;;;;;;;;;;5112590;28;20075;-62
2021/07/23 10:47:38;;;;;;;11.68;5.53;;;;;;;;;;5111262;28;20100;-64
2021/07/23 10:50:06;;;;;;;11.07;6.38;;;;;;;;;;5110562;28;20055;-62
2021/07/23 10:52:39;;;;;;;8.48;5.80;;;;;;;;;;5110758;28;20059;-63
2021/07/23 10:55:10;;;;;;;9.50;6.05;;;;;;;;;;5110784;28;20495;-62
2021/07/23 10:57:37;;;;;;;9.07;5.22;;;;;;;;;;5095475;28;20078;-63
2021/07/23 11:00:04;;;;;;;9.95;5.53;;;;;;;;;;5112646;28;20069;-63
2021/07/23 11:02:30;;;;;;;10.10;5.93;;;;;;;;;;5111152;28;20123;-62
2021/07/23 11:05:07;;;;;;;9.27;5.68;;;;;;;;;;5090776;28;20043;-63
2021/07/23 11:07:34;;;;;;;12.43;6.28;;;;;;;;;;5110701;28;20039;-62
2021/07/23 11:10:00;;;;;;;9.73;6.25;;;;;;;;;;5110604;28;20473;-62
2021/07/23 11:12:31;;;;;;;9.70;5.57;;;;;;;;;;5110209;28;20052;-63
2021/07/23 11:14:58;;;;;;;9.73;5.80;;;;;;;;;;5094239;28;20047;-63
2021/07/23 11:17:26;;;;;;;11.63;5.97;;;;;;;;;;5091390;28;20067;-63
2021/07/23 11:19:55;;;;;;;13.60;6.43;;;;;;;;;;5110176;28;20040;-63
2021/07/23 11:22:26;;;;;;;10.48;5.38;;;;;;;;;;5092380;28;20048;-63
2021/07/23 11:25:02;;;;;;;9.73;5.55;;;;;;;;;;5110537;28;20511;-63
2021/07/23 11:27:30;;;;;;;11.95;5.85;;;;;;;;;;5110741;28;20050;-63
2021/07/23 11:29:58;;;;;;;9.02;5.30;;;;;;;;;;5112147;28;20079;-63
2021/07/23 11:32:25;;;;;;;9.48;5.45;;;;;;;;;;5110175;28;20099;-63
2021/07/23 11:35:04;;;;;;;22.40;6.75;;;;;;;;;;5092302;28;20043;-64
2021/07/23 11:37:30;;;;;;;16.42;6.97;;;;;;;;;;5110438;28;20067;-63
2021/07/23 11:40:01;;;;;;;9.30;5.68;;;;;;;;;;5090660;28;20075;-64
2021/07/23 11:42:36;;;;;;;12.55;6.03;;;;;;;;;;5110344;28;20120;-64
2021/07/23 11:45:04;;;;;;;12.77;6.22;;;;;;;;;;5108661;28;20075;-62
2021/07/23 11:47:31;;;;;;;10.70;6.45;;;;;;;;;;5110685;28;20039;-64
2021/07/23 11:49:59;;;;;;;10.63;6.13;;;;;;;;;;5110585;28;20467;-64
2021/07/23 11:52:26;;;;;;;8.80;5.90;;;;;;;;;;5109244;27;20090;-64
2021/07/23 11:54:59;;;;;;;11.50;6.18;;;;;;;;;;5099725;28;20118;-64
2021/07/23 11:57:26;;;;;;;9.85;6.32;;;;;;;;;;5114266;28;20062;-63
2021/07/23 11:59:52;;;;;;;9.30;6.25;;;;;;;;;;5115768;28;20048;-64
2021/07/23 12:02:24;;;;;;;9.63;5.38;;;;;;;;;;5095619;28;20411;-63
2021/07/23 12:05:01;;;;;;;13.75;5.95;;;;;;;;;;5113725;28;20044;-64
2021/07/23 12:07:28;;;;;;;7.18;5.10;;;;;;;;;;5114028;28;20047;-64
2021/07/23 12:09:54;;;;;;;9.30;5.82;;;;;;;;;;5113860;28;20064;-63
2021/07/23 12:12:20;;;;;;;9.18;5.35;;;;;;;;;;5113653;28;20046;-63
2021/07/23 12:14:47;;;;;;;9.20;5.22;;;;;;;;;;5115650;28;20075;-63
2021/07/23 12:17:16;;;;;;;8.57;5.55;;;;;;;;;;5113502;28;20071;-64
2021/07/23 12:19:42;;;;;;;9.68;6.38;;;;;;;;;;5113391;28;20415;-64
2021/07/23 12:22:15;;;;;;;8.52;5.55;;;;;;;;;;5113470;28;20075;-63
2021/07/23 12:24:42;;;;;;;9.73;6.13;;;;;;;;;;5096119;28;20061;-63
2021/07/23 12:27:24;;;;;;;10.52;5.57;;;;;;;;;;5114897;28;20169;-64
2021/07/23 12:29:51;;;;;;;9.25;5.68;;;;;;;;;;5115316;28;20486;-63
2021/07/23 12:32:24;;;;;;;12.10;6.15;;;;;;;;;;5111594;28;20131;-63
2021/07/23 12:34:57;;;;;;;9.13;5.90;;;;;;;;;;5112091;28;20503;-63
2021/07/23 12:37:24;;;;;;;11.13;6.05;;;;;;;;;;5113580;28;20066;-63
2021/07/23 12:40:06;;;;;;;11.60;5.50;;;;;;;;;;5113187;28;20043;-64
2021/07/23 12:42:32;;;;;;;8.93;5.28;;;;;;;;;;5097008;28;20090;-63
2021/07/23 12:44:58;;;;;;;9.63;6.35;;;;;;;;;;5115313;28;20533;-64
2021/07/23 12:47:25;;;;;;;8.27;5.45;;;;;;;;;;5112846;28;20399;-63
2021/07/23 12:49:53;;;;;;;9.77;6.03;;;;;;;;;;5112683;28;20090;-64
2021/07/23 12:52:19;;;;;;;9.43;5.55;;;;;;;;;;5094761;28;20122;-63
2021/07/23 12:54:47;;;;;;;9.57;5.47;;;;;;;;;;5112881;28;20039;-63
2021/07/23 12:57:22;;;;;;;8.35;5.40;;;;;;;;;;5113562;28;20043;-63
2021/07/23 12:59:52;;;;;;;8.63;5.85;;;;;;;;;;5112607;28;20513;-63
2021/07/23 13:02:19;;;;;;;9.95;6.28;;;;;;;;;;5112069;28;20075;-63
2021/07/23 13:04:45;;;;;;;9.77;5.60;;;;;;;;;;5112848;28;20131;-64
2021/07/23 13:07:12;;;;;;;9.57;5.38;;;;;;;;;;5094560;28;20047;-63
2021/07/23 13:09:42;;;;;;;12.00;5.85;;;;;;;;;;5111357;28;20472;-62
2021/07/23 13:12:09;;;;;;;7.40;5.20;;;;;;;;;;5113939;28;20495;-63
2021/07/23 13:14:36;;;;;;;8.13;5.63;;;;;;;;;;5113462;28;20043;-62
2021/07/23 13:17:06;;;;;;;9.75;5.50;;;;;;;;;;5112215;28;20078;-64
2021/07/23 13:19:32;;;;;;;7.20;5.18;;;;;;;;;;5094361;28;20495;-63
2021/07/23 13:22:00;;;;;;;14.88;6.05;;;;;;;;;;5112118;28;20089;-63
2021/07/23 13:24:27;;;;;;;10.40;5.65;;;;;;;;;;5112137;28;20538;-63
2021/07/23 13:26:54;;;;;;;9.52;5.50;;;;;;;;;;5114429;28;20048;-63
2021/07/23 13:29:23;;;;;;;9.52;5.75;;;;;;;;;;5112094;28;20074;-62
2021/07/23 13:31:53;;;;;;;9.40;5.95;;;;;;;;;;5111700;28;20040;-64
2021/07/23 13:34:21;;;;;;;14.80;5.78;;;;;;;;;;5112039;28;20452;-63
2021/07/23 13:37:07;;;;;;;9.77;5.82;;;;;;;;;;5112171;28;20521;-62
2021/07/23 13:39:45;;;;;;;10.13;5.90;;;;;;;;;;5096127;28;20048;-64
2021/07/23 13:42:11;;;;;;;10.32;6.30;;;;;;;;;;5092315;28;20107;-64
2021/07/23 13:44:37;;;;;;;13.82;5.80;;;;;;;;;;5112939;28;20388;-63
2021/07/23 13:47:04;;;;;;;8.82;5.20;;;;;;;;;;5111802;28;20456;-62
2021/07/23 13:49:30;;;;;;;11.20;5.70;;;;;;;;;;5110382;28;20040;-63
2021/07/23 13:51:57;;;;;;;9.05;5.45;;;;;;;;;;5110407;28;20040;-63
2021/07/23 13:54:23;;;;;;;10.00;5.78;;;;;;;;;;5111706;28;20154;-62
2021/07/23 13:56:49;;;;;;;10.50;6.03;;;;;;;;;;5113949;28;20054;-62
2021/07/23 13:59:17;;;;;;;11.48;6.10;;;;;;;;;;5111224;28;20044;-63
2021/07/23 14:01:43;;;;;;;9.52;5.75;;;;;;;;;;5111595;28;20505;-64
2021/07/23 14:04:09;;;;;;;12.82;6.25;;;;;;;;;;5111610;28;20088;-63
2021/07/23 14:06:36;;;;;;;9.95;5.85;;;;;;;;;;5111558;28;20075;-64
2021/07/23 14:09:02;;;;;;;8.65;6.05;;;;;;;;;;5113570;28;20056;-64
2021/07/23 14:11:28;;;;;;;10.00;6.53;;;;;;;;;;5109878;28;20044;-65
2021/07/23 14:13:56;;;;;;;12.65;7.18;;;;;;;;;;5110896;28;20147;-63
2021/07/23 14:16:23;;;;;;;10.20;5.97;;;;;;;;;;5111391;28;20498;-62
2021/07/23 14:18:49;;;;;;;12.75;6.13;;;;;;;;;;5111438;28;20421;-64
2021/07/23 14:21:19;;;;;;;13.68;6.65;;;;;;;;;;5111600;28;20080;-63
2021/07/23 14:23:49;;;;;;;13.25;7.63;;;;;;;;;;5111390;28;20048;-62
2021/07/23 14:26:19;;;;;;;10.75;6.43;;;;;;;;;;5111163;28;20125;-62
2021/07/23 14:28:46;;;;;;;11.18;6.20;;;;;;;;;;5109502;28;20075;-63
2021/07/23 14:31:18;;;;;;;12.35;6.05;;;;;;;;;;5109700;28;20051;-63
2021/07/23 14:33:45;;;;;;;8.73;6.00;;;;;;;;;;5111168;28;20067;-65
2021/07/23 14:36:11;;;;;;;9.23;6.30;;;;;;;;;;5112243;28;20135;-62
2021/07/23 14:38:39;;;;;;;8.20;5.60;;;;;;;;;;5112159;28;20075;-63
2021/07/23 14:41:05;;;;;;;8.45;5.07;;;;;;;;;;5110915;28;20039;-63